Time;durP1;ratioP1;P1;durP2;ratioP2;P2;SDS_P1;SDS_P2;PMS_P1;PMS_P2;Temp;Humidity;BMP_temperature;BMP_pressure;BME280_temperature;BME280_humidity;BME280_pressure;Samples;Min_cycle;Max_cycle;Signal;HPM_P1;HPM_P2
2023/03/28 00:00:25;;;;;;;10.18;1.52;;;;;;;3.20;100.00;101157.19;5209361;28;20687;-72
2023/03/28 00:02:56;;;;;;;9.73;1.10;;;;;;;3.23;100.00;101157.19;5208581;28;20021;-72
2023/03/28 00:05:26;;;;;;;8.13;1.42;;;;;;;3.28;100.00;101165.81;5203918;28;20037;-72
2023/03/28 00:07:58;;;;;;;8.43;1.10;;;;;;;3.27;100.00;101159.78;5207666;28;20112;-72
2023/03/28 00:10:28;;;;;;;4.80;0.88;;;;;;;3.22;100.00;101171.81;5206435;28;20033;-72
2023/03/28 00:12:59;;;;;;;5.70;0.90;;;;;;;3.18;100.00;101169.22;5203717;28;20127;-71
2023/03/28 00:15:29;;;;;;;2.63;1.10;;;;;;;3.18;100.00;101174.41;5199997;28;20373;-72
2023/03/28 00:18:00;;;;;;;6.13;0.98;;;;;;;3.10;100.00;101176.06;5207816;28;20052;-72
2023/03/28 00:20:31;;;;;;;8.68;1.40;;;;;;;3.07;100.00;101181.22;5201567;28;20025;-71
2023/03/28 00:23:02;;;;;;;10.85;1.83;;;;;;;2.98;100.00;101171.72;5221659;23;20056;-76
2023/03/28 00:25:34;;;;;;;7.55;1.35;;;;;;;2.96;100.00;101177.72;5197985;28;20032;-76
2023/03/28 00:28:05;;;;;;;8.48;1.48;;;;;;;2.92;100.00;101166.53;5208479;28;20043;-76
2023/03/28 00:30:36;;;;;;;9.27;1.50;;;;;;;2.85;100.00;101176.84;5207179;28;20033;-76
2023/03/28 00:33:06;;;;;;;11.70;1.50;;;;;;;2.81;100.00;101172.47;5204344;28;20082;-75
2023/03/28 00:35:36;;;;;;;9.15;1.52;;;;;;;2.83;100.00;101189.72;5207464;28;20479;-76
2023/03/28 00:38:06;;;;;;;10.38;1.92;;;;;;;2.90;100.00;101178.59;5209851;28;20111;-76
2023/03/28 00:40:37;;;;;;;7.47;1.65;;;;;;;2.81;100.00;101178.53;5208826;28;20025;-75
2023/03/28 00:43:12;;;;;;;11.60;1.70;;;;;;;2.76;100.00;101187.09;5191204;28;20272;-76
2023/03/28 00:45:42;;;;;;;7.53;1.95;;;;;;;2.76;100.00;101190.53;5207908;28;20029;-76
2023/03/28 00:48:14;;;;;;;12.30;2.10;;;;;;;2.80;100.00;101181.97;5210830;28;20022;-73
2023/03/28 00:50:47;;;;;;;9.75;1.92;;;;;;;2.82;100.00;101192.31;5178710;28;20025;-75
2023/03/28 00:53:25;;;;;;;8.15;1.85;;;;;;;2.85;100.00;101202.63;5207701;28;20017;-77
2023/03/28 00:56:00;;;;;;;6.00;1.40;;;;;;;2.92;100.00;101197.53;5206837;28;20371;-76
2023/03/28 00:58:34;;;;;;;5.32;1.45;;;;;;;2.92;100.00;101202.69;5206788;28;20103;-77
2023/03/28 01:01:05;;;;;;;11.98;2.42;;;;;;;2.82;100.00;101200.03;5188862;28;20418;-77
2023/03/28 01:03:40;;;;;;;9.50;1.42;;;;;;;2.89;100.00;101197.47;5196483;28;20316;-76
2023/03/28 01:06:13;;;;;;;6.53;1.45;;;;;;;2.80;100.00;101204.31;5187423;28;20029;-75
2023/03/28 01:08:45;;;;;;;14.07;1.75;;;;;;;2.76;100.00;101200.88;5210798;28;20083;-76
2023/03/28 01:11:16;;;;;;;10.82;1.50;;;;;;;2.81;100.00;101203.44;5187791;28;20029;-76
2023/03/28 01:13:49;;;;;;;12.27;2.25;;;;;;;2.73;100.00;101208.59;5201409;28;20079;-76
2023/03/28 01:16:21;;;;;;;10.10;1.85;;;;;;;2.75;100.00;101213.75;5208540;28;20029;-76
2023/03/28 01:18:51;;;;;;;17.92;1.92;;;;;;;2.84;100.00;101229.31;5210323;28;20051;-77
2023/03/28 01:21:47;;;;;;;13.02;1.60;;;;;;;2.92;100.00;101230.19;5193734;28;20025;-76
2023/03/28 01:24:53;;;;;;;9.55;1.50;;;;;;;2.92;100.00;101227.63;5205363;28;20063;-77
2023/03/28 01:27:42;;;;;;;8.63;1.63;;;;;;;2.94;100.00;101216.44;5181270;28;20033;-73
2023/03/28 01:30:21;;;;;;;10.57;1.73;;;;;;;2.89;100.00;101228.44;5211072;28;20047;-77
2023/03/28 01:33:25;;;;;;;13.98;1.58;;;;;;;2.91;100.00;101234.50;5203016;28;20217;-77
2023/03/28 01:36:01;;;;;;;4.90;1.27;;;;;;;2.95;100.00;101237.94;5205440;28;20407;-76
2023/03/28 01:38:36;;;;;;;5.60;1.33;;;;;;;2.92;100.00;101248.25;5209616;28;20032;-77
2023/03/28 01:41:24;;;;;;;15.00;1.70;;;;;;;2.95;100.00;101250.84;5208357;28;20071;-73
2023/03/28 01:44:09;;;;;;;10.07;1.35;;;;;;;3.07;100.00;101258.69;5203010;28;20075;-76
2023/03/28 01:46:51;;;;;;;16.05;1.45;;;;;;;2.98;100.00;101258.59;5175618;28;20546;-76
2023/03/28 01:49:34;;;;;;;11.38;1.30;;;;;;;3.06;100.00;101247.47;5199600;28;20642;-76
2023/03/28 01:52:16;;;;;;;3.90;1.00;;;;;;;3.08;100.00;101250.06;5187240;28;20053;-76
2023/03/28 01:54:55;;;;;;;5.78;1.02;;;;;;;3.16;100.00;101253.56;5195332;28;20109;-77
2023/03/28 01:57:40;;;;;;;6.90;1.00;;;;;;;3.11;100.00;101245.81;5188303;28;20449;-76
2023/03/28 02:00:23;;;;;;;9.63;1.08;;;;;;;3.13;100.00;101249.25;5205612;28;20264;-77
2023/03/28 02:03:13;;;;;;;3.60;1.00;;;;;;;3.11;100.00;101265.56;5210562;28;20026;-74
2023/03/28 02:05:45;;;;;;;10.13;1.40;;;;;;;3.12;100.00;101265.59;5205444;28;20201;-76
2023/03/28 02:08:17;;;;;;;7.57;1.80;;;;;;;3.08;100.00;101260.41;5207308;28;20065;-77
2023/03/28 02:10:50;;;;;;;12.00;1.25;;;;;;;3.14;100.00;101265.59;5208664;28;20511;-74
2023/03/28 02:13:27;;;;;;;3.88;1.20;;;;;;;3.14;100.00;101265.59;5209669;28;20399;-77
2023/03/28 02:15:59;;;;;;;7.55;1.23;;;;;;;3.17;100.00;101271.63;5215329;28;20021;-77
2023/03/28 02:18:38;;;;;;;4.05;1.20;;;;;;;3.22;100.00;101271.66;5207696;28;20071;-77
2023/03/28 02:21:18;;;;;;;6.40;1.30;;;;;;;3.20;100.00;101269.06;5211224;28;20475;-76
2023/03/28 02:23:51;;;;;;;5.28;1.10;;;;;;;3.21;100.00;101275.13;5206335;28;20150;-76
2023/03/28 02:26:24;;;;;;;7.00;0.90;;;;;;;3.16;100.00;101284.56;5207737;28;20112;-76
2023/03/28 02:28:56;;;;;;;6.63;1.13;;;;;;;3.20;100.00;101275.97;5201946;28;20052;-75
2023/03/28 02:31:27;;;;;;;6.18;1.02;;;;;;;3.21;100.00;101278.53;5184515;28;20394;-72
2023/03/28 02:33:57;;;;;;;4.15;1.00;;;;;;;3.22;100.00;101274.25;5200211;28;20032;-76
2023/03/28 02:36:41;;;;;;;9.23;1.25;;;;;;;3.12;100.00;101277.63;5207016;28;20486;-76
2023/03/28 02:39:38;;;;;;;5.68;1.58;;;;;;;3.09;100.00;101275.03;5203639;28;20528;-77
2023/03/28 02:42:48;;;;;;;5.75;1.40;;;;;;;2.97;100.00;101278.41;5187940;28;20037;-76
2023/03/28 02:45:35;;;;;;;2.28;1.10;;;;;;;2.90;100.00;101276.66;5205067;28;20104;-77
2023/03/28 02:48:41;;;;;;;6.00;1.45;;;;;;;2.94;100.00;101277.53;5205086;28;20036;-75
2023/03/28 02:51:22;;;;;;;4.45;1.23;;;;;;;2.90;100.00;101286.09;5205757;28;20044;-77
2023/03/28 02:54:11;;;;;;;6.90;1.20;;;;;;;2.84;100.00;101286.94;5182852;28;20505;-76
2023/03/28 02:56:59;;;;;;;7.03;1.48;;;;;;;2.85;100.00;101287.81;5183521;28;20039;-76
2023/03/28 02:59:41;;;;;;;8.15;1.55;;;;;;;2.82;100.00;101293.81;5179936;28;20471;-77
2023/03/28 03:02:16;;;;;;;5.35;1.17;;;;;;;2.79;100.00;101287.75;5202629;28;20052;-76
2023/03/28 03:04:49;;;;;;;8.13;1.52;;;;;;;2.83;100.00;101292.09;5202160;28;20026;-76
2023/03/28 03:07:19;;;;;;;5.70;1.88;;;;;;;2.84;100.00;101286.94;5184968;28;20509;-76
2023/03/28 03:09:52;;;;;;;9.02;2.03;;;;;;;2.88;100.00;101287.81;5200987;28;20045;-76
2023/03/28 03:12:22;;;;;;;7.35;1.55;;;;;;;2.87;100.00;101294.69;5210857;28;20391;-76
2023/03/28 03:14:53;;;;;;;7.95;1.98;;;;;;;2.90;100.00;101302.47;5206935;28;20086;-76
2023/03/28 03:17:23;;;;;;;7.50;2.15;;;;;;;2.87;100.00;101293.84;5212243;28;20451;-74
2023/03/28 03:19:54;;;;;;;5.68;1.90;;;;;;;2.89;100.00;101299.88;5203892;28;20033;-76
2023/03/28 03:22:25;;;;;;;6.63;1.48;;;;;;;2.82;100.00;101314.44;5199278;28;20038;-73
2023/03/28 03:24:56;;;;;;;6.53;1.65;;;;;;;2.87;100.00;101309.31;5191687;28;20052;-74
2023/03/28 03:27:26;;;;;;;9.45;1.90;;;;;;;2.85;100.00;101309.31;5196398;28;20034;-76
2023/03/28 03:29:57;;;;;;;12.43;1.98;;;;;;;2.75;100.00;101301.47;5206552;28;20024;-76
2023/03/28 03:32:27;;;;;;;6.85;1.45;;;;;;;2.70;100.00;101310.91;5204943;28;20386;-76
2023/03/28 03:34:57;;;;;;;4.93;1.20;;;;;;;2.76;100.00;101311.84;5202484;28;20029;-77
2023/03/28 03:37:28;;;;;;;14.88;1.52;;;;;;;2.70;100.00;101316.06;5194113;28;20052;-76
2023/03/28 03:39:58;;;;;;;6.80;1.33;;;;;;;2.70;100.00;101314.34;5207385;28;20029;-76
2023/03/28 03:42:28;;;;;;;13.93;1.65;;;;;;;2.71;100.00;101321.22;5203607;28;20096;-76
2023/03/28 03:44:59;;;;;;;7.45;1.70;;;;;;;2.68;100.00;101328.09;5189202;28;20471;-76
2023/03/28 03:47:30;;;;;;;8.73;1.90;;;;;;;2.70;100.00;101318.66;5208764;28;20030;-76
2023/03/28 03:50:00;;;;;;;11.43;2.10;;;;;;;2.63;100.00;101338.38;5204002;28;20494;-77
2023/03/28 03:52:31;;;;;;;11.68;1.98;;;;;;;2.70;100.00;101327.25;5209281;28;20094;-77
2023/03/28 03:55:01;;;;;;;8.07;1.70;;;;;;;2.76;100.00;101339.34;5216054;28;20482;-76
2023/03/28 03:57:31;;;;;;;14.20;1.77;;;;;;;2.82;100.00;101340.25;5211571;28;20479;-74
2023/03/28 04:00:12;;;;;;;7.60;1.73;;;;;;;2.64;100.00;101352.13;5206231;28;20028;-76
2023/03/28 04:02:43;;;;;;;17.98;1.90;;;;;;;2.60;100.00;101355.53;5217596;28;20033;-76
2023/03/28 04:05:13;;;;;;;9.18;1.80;;;;;;;2.59;100.00;101351.22;5208645;28;20076;-77
2023/03/28 04:07:43;;;;;;;12.25;1.90;;;;;;;2.57;100.00;101351.25;5213861;28;20029;-76
2023/03/28 04:10:14;;;;;;;6.65;2.30;;;;;;;2.62;100.00;101357.28;5190569;28;20034;-77
2023/03/28 04:12:44;;;;;;;9.70;2.30;;;;;;;2.55;100.00;101362.38;5212725;28;20552;-73
2023/03/28 04:15:14;;;;;;;7.78;1.80;;;;;;;2.55;100.00;101370.13;5206913;28;20037;-77
2023/03/28 04:17:45;;;;;;;12.77;2.00;;;;;;;2.53;100.00;101362.34;5212185;28;20562;-76
2023/03/28 04:20:16;;;;;;;11.02;2.20;;;;;;;2.42;100.00;101361.41;5214458;28;20114;-76
2023/03/28 04:22:47;;;;;;;7.95;1.95;;;;;;;2.48;100.00;101363.19;5191200;28;20064;-77
2023/03/28 04:25:20;;;;;;;9.98;1.77;;;;;;;2.51;100.00;101368.38;5208427;28;20029;-77
2023/03/28 04:27:53;;;;;;;11.73;1.75;;;;;;;2.55;100.00;101359.81;5205715;28;20083;-77
2023/03/28 04:30:24;;;;;;;12.48;2.13;;;;;;;2.51;100.00;101360.63;5207166;28;20029;-77
2023/03/28 04:32:54;;;;;;;17.35;2.25;;;;;;;2.49;100.00;101364.91;5212407;28;20541;-76
2023/03/28 04:35:25;;;;;;;11.43;1.55;;;;;;;2.52;100.00;101383.00;5214002;28;20059;-76
2023/03/28 04:37:59;;;;;;;8.13;1.77;;;;;;;2.51;100.00;101383.84;5208441;28;20479;-76
2023/03/28 04:40:29;;;;;;;5.97;1.48;;;;;;;2.44;100.00;101382.03;5213067;28;20021;-77
2023/03/28 04:43:00;;;;;;;8.65;1.90;;;;;;;2.45;100.00;101378.59;5206352;28;20033;-76
2023/03/28 04:45:30;;;;;;;9.52;1.80;;;;;;;2.43;100.00;101383.78;5205182;28;20096;-77
2023/03/28 04:48:00;;;;;;;14.35;2.00;;;;;;;2.37;100.00;101388.00;5207188;28;20031;-77
2023/03/28 04:50:30;;;;;;;8.18;1.65;;;;;;;2.35;100.00;101393.13;5206082;28;20037;-76
2023/03/28 04:53:01;;;;;;;9.35;1.70;;;;;;;2.38;100.00;101397.47;5207453;28;20269;-76
2023/03/28 04:55:31;;;;;;;9.15;1.90;;;;;;;2.39;100.00;101400.06;5195953;28;20053;-77
2023/03/28 04:58:02;;;;;;;7.60;1.60;;;;;;;2.29;100.00;101403.38;5190129;28;20521;-77
2023/03/28 05:00:32;;;;;;;12.63;2.30;;;;;;;2.31;100.00;101406.84;5188391;28;20024;-73
2023/03/28 05:03:05;;;;;;;8.10;1.80;;;;;;;2.32;100.00;101410.31;5205713;28;20112;-77
2023/03/28 05:05:35;;;;;;;6.90;1.77;;;;;;;2.30;100.00;101417.16;5186114;28;20025;-77
2023/03/28 05:08:06;;;;;;;13.10;2.05;;;;;;;2.33;100.00;101422.34;5211499;28;20033;-76
2023/03/28 05:10:36;;;;;;;8.15;1.67;;;;;;;2.32;100.00;101428.34;5207503;28;20033;-77
2023/03/28 05:13:07;;;;;;;11.25;1.80;;;;;;;2.39;100.00;101424.97;5203723;28;20063;-76
2023/03/28 05:15:37;;;;;;;13.18;1.92;;;;;;;2.39;100.00;101424.97;5204670;28;20053;-77
2023/03/28 05:18:08;;;;;;;9.63;2.40;;;;;;;2.39;100.00;101436.19;5207373;28;20040;-77
2023/03/28 05:20:38;;;;;;;8.55;2.42;;;;;;;2.53;100.00;101428.56;5203536;28;20583;-77
2023/03/28 05:23:09;;;;;;;11.35;2.75;;;;;;;2.50;100.00;101436.28;5209416;28;20063;-77
2023/03/28 05:25:39;;;;;;;8.20;2.10;;;;;;;2.47;100.00;101442.28;5207087;28;20120;-77
2023/03/28 05:28:09;;;;;;;14.48;3.08;;;;;;;2.56;100.00;101438.91;5200591;28;20025;-77
2023/03/28 05:30:40;;;;;;;10.27;2.22;;;;;;;2.62;100.00;101449.28;5203576;28;20032;-76
2023/03/28 05:33:10;;;;;;;10.43;2.65;;;;;;;2.60;100.00;101453.56;5187191;28;20029;-74
2023/03/28 05:35:41;;;;;;;8.95;2.38;;;;;;;2.64;100.00;101460.50;5202049;28;20025;-77
2023/03/28 05:38:13;;;;;;;10.23;2.20;;;;;;;2.66;100.00;101469.13;5201503;28;20455;-77
2023/03/28 05:40:43;;;;;;;7.93;2.30;;;;;;;2.72;100.00;101474.34;5201057;28;20033;-77
2023/03/28 05:43:13;;;;;;;5.85;2.22;;;;;;;2.78;100.00;101474.41;5205382;28;20387;-75
2023/03/28 05:45:45;;;;;;;7.97;2.30;;;;;;;2.92;100.00;101470.25;5208286;28;20029;-75
2023/03/28 05:48:16;;;;;;;5.82;1.95;;;;;;;2.98;100.00;101480.63;5192612;28;20025;-77
2023/03/28 05:50:48;;;;;;;5.50;1.90;;;;;;;3.08;100.00;101488.50;5208754;28;20017;-76
2023/03/28 05:53:19;;;;;;;8.25;2.40;;;;;;;3.15;100.00;101477.34;5201986;28;20029;-76
2023/03/28 05:55:49;;;;;;;7.15;2.17;;;;;;;3.11;100.00;101487.63;5207463;28;20351;-77
2023/03/28 05:58:20;;;;;;;6.10;2.00;;;;;;;3.29;100.00;101485.19;5210897;28;20024;-77
2023/03/28 06:00:51;;;;;;;7.25;2.15;;;;;;;3.21;100.00;101484.28;5206631;28;20025;-76
2023/03/28 06:03:21;;;;;;;11.63;2.25;;;;;;;3.25;100.00;101492.09;5209389;28;20044;-77
2023/03/28 06:05:52;;;;;;;12.93;2.42;;;;;;;3.40;100.00;101486.16;5206151;28;20529;-77
2023/03/28 06:08:23;;;;;;;10.25;2.58;;;;;;;3.57;100.00;101479.41;5205440;28;20057;-77
2023/03/28 06:10:58;;;;;;;10.13;2.22;;;;;;;3.64;100.00;101488.06;5208490;28;20025;-77
2023/03/28 06:13:29;;;;;;;11.10;2.05;;;;;;;3.56;100.00;101482.84;5197906;28;20028;-76
2023/03/28 06:15:59;;;;;;;14.63;2.20;;;;;;;3.67;100.00;101488.09;5203224;28;20027;-77
2023/03/28 06:18:30;;;;;;;8.43;2.10;;;;;;;3.89;100.00;101487.38;5206073;28;20044;-76
2023/03/28 06:21:00;;;;;;;7.28;1.60;;;;;;;3.93;100.00;101485.69;5202652;28;20028;-76
2023/03/28 06:23:31;;;;;;;10.57;1.90;;;;;;;3.90;100.00;101496.88;5225462;23;20080;-72
2023/03/28 06:26:02;;;;;;;6.88;1.70;;;;;;;3.76;100.00;101493.31;5202714;28;20025;-69
2023/03/28 06:28:32;;;;;;;5.55;1.38;;;;;;;3.83;100.00;101500.28;5186404;28;20387;-71
2023/03/28 06:31:02;;;;;;;10.57;1.77;;;;;;;3.89;100.00;101494.25;5205475;28;20497;-74
2023/03/28 06:33:33;;;;;;;6.38;1.40;;;;;;;4.12;100.00;101493.53;5192572;28;20025;-72
2023/03/28 06:36:04;;;;;;;10.70;1.60;;;;;;;3.94;100.00;101503.78;5188717;28;20046;-73
2023/03/28 06:38:34;;;;;;;9.23;1.45;;;;;;;4.09;100.00;101509.03;5163766;28;20021;-71
2023/03/28 06:41:05;;;;;;;4.95;1.40;;;;;;;4.25;100.00;101510.84;5191398;28;20151;-71
2023/03/28 06:43:35;;;;;;;15.48;1.90;;;;;;;4.12;100.00;101516.81;5188826;28;20493;-73
2023/03/28 06:46:06;;;;;;;6.63;1.38;;;;;;;4.28;100.00;101510.00;5185862;28;20021;-72
2023/03/28 06:48:36;;;;;;;9.80;1.50;;;;;;;4.44;100.00;101516.97;5170001;28;20025;-73
2023/03/28 06:51:06;;;;;;;7.57;1.50;;;;;;;4.52;99.16;101510.97;5185837;28;21330;-72
2023/03/28 06:53:37;;;;;;;12.65;1.77;;;;;;;4.58;99.04;101521.34;5190048;28;20018;-72
2023/03/28 06:56:08;;;;;;;7.47;1.35;;;;;;;4.65;99.15;101528.25;5170105;28;20026;-72
2023/03/28 06:58:38;;;;;;;9.55;1.30;;;;;;;4.83;99.73;101532.63;5189792;28;20470;-75
2023/03/28 07:01:09;;;;;;;9.80;1.55;;;;;;;4.85;99.44;101526.63;5188252;28;20027;-72
2023/03/28 07:03:39;;;;;;;9.88;1.40;;;;;;;4.53;99.68;101528.22;5191760;28;20053;-73
2023/03/28 07:06:10;;;;;;;6.40;1.58;;;;;;;4.74;99.64;101538.66;5185591;28;20028;-72
2023/03/28 07:08:40;;;;;;;5.80;1.00;;;;;;;4.87;98.66;101540.44;5186845;28;20144;-72
2023/03/28 07:11:11;;;;;;;7.47;1.40;;;;;;;4.90;96.65;101535.25;5169729;28;20022;-72
2023/03/28 07:13:41;;;;;;;7.75;1.23;;;;;;;5.03;96.87;101533.53;5185649;28;20033;-72
2023/03/28 07:16:13;;;;;;;6.63;1.38;;;;;;;5.33;93.97;101534.44;5188459;28;20651;-74
2023/03/28 07:18:43;;;;;;;5.25;1.30;;;;;;;5.72;92.82;101531.88;5189606;28;20580;-75
2023/03/28 07:21:16;;;;;;;10.65;1.50;;;;;;;6.78;87.60;101533.31;5183691;28;20033;-73
2023/03/28 07:23:46;;;;;;;6.80;1.30;;;;;;;8.67;81.55;101525.56;5186900;28;20022;-73
2023/03/28 07:26:17;;;;;;;7.18;1.23;;;;;;;7.41;82.81;101533.78;5187198;28;20164;-72
2023/03/28 07:28:48;;;;;;;13.40;2.00;;;;;;;7.95;82.87;101531.59;5168355;28;20045;-72
2023/03/28 07:31:19;;;;;;;7.28;1.45;;;;;;;6.76;85.18;101545.47;5190845;28;20848;-72
2023/03/28 07:33:50;;;;;;;9.80;1.05;;;;;;;6.18;86.12;101554.31;5191214;28;20032;-72
2023/03/28 07:36:21;;;;;;;6.03;1.10;;;;;;;6.12;90.38;101556.91;5175478;28;20029;-72
2023/03/28 07:38:51;;;;;;;11.63;1.40;;;;;;;5.87;91.16;101571.66;5193284;28;20060;-74
2023/03/28 07:41:21;;;;;;;8.57;2.00;;;;;;;5.75;91.28;101573.38;5190400;28;20046;-71
2023/03/28 07:43:52;;;;;;;11.10;1.80;;;;;;;5.75;92.08;101570.78;5184147;28;20072;-72
2023/03/28 07:46:23;;;;;;;7.18;1.23;;;;;;;5.21;92.99;101575.91;5189079;28;20065;-72
2023/03/28 07:48:54;;;;;;;9.02;1.25;;;;;;;5.29;94.09;101581.97;5194614;28;20034;-75
2023/03/28 07:51:25;;;;;;;5.53;1.00;;;;;;;7.28;89.09;101562.50;5194029;28;20030;-71
2023/03/28 07:53:55;;;;;;;5.43;1.30;;;;;;;7.89;85.48;101562.00;5191399;28;20589;-72
2023/03/28 07:56:25;;;;;;;7.03;1.73;;;;;;;8.00;80.59;101566.22;5194202;28;20502;-75
2023/03/28 07:58:56;;;;;;;10.75;1.65;;;;;;;7.69;83.11;101574.31;5187757;28;20029;-74
2023/03/28 08:01:26;;;;;;;9.77;1.55;;;;;;;7.25;83.92;101578.13;5191810;28;20037;-71
2023/03/28 08:03:58;;;;;;;9.48;1.50;;;;;;;6.49;86.84;101584.50;5191430;28;20018;-72
2023/03/28 08:06:28;;;;;;;17.15;2.83;;;;;;;6.09;88.37;101588.06;5192326;28;20025;-72
2023/03/28 08:08:59;;;;;;;10.82;1.90;;;;;;;5.80;88.60;101582.03;5187779;28;20075;-74
2023/03/28 08:11:30;;;;;;;13.05;2.17;;;;;;;6.14;90.07;101588.91;5172158;28;20022;-73
2023/03/28 08:14:02;;;;;;;8.30;1.92;;;;;;;6.37;90.25;101593.19;5193150;28;20502;-71
2023/03/28 08:16:32;;;;;;;11.57;2.58;;;;;;;6.65;87.47;101589.66;5188594;28;20018;-72
2023/03/28 08:19:03;;;;;;;5.65;1.40;;;;;;;7.32;86.50;101593.66;5176588;28;20377;-72
2023/03/28 08:21:34;;;;;;;6.68;1.70;;;;;;;8.54;80.62;101576.09;5191482;28;20458;-73
2023/03/28 08:24:06;;;;;;;9.80;2.85;;;;;;;9.52;77.08;101571.28;5192764;28;20064;-75
2023/03/28 08:26:37;;;;;;;10.68;2.92;;;;;;;11.57;71.99;101569.88;5180831;28;20029;-72
2023/03/28 08:29:08;;;;;;;7.03;1.80;;;;;;;11.89;67.80;101569.94;5176593;28;20025;-74
2023/03/28 08:31:38;;;;;;;8.38;1.55;;;;;;;11.36;67.29;101565.09;5195243;28;20032;-74
2023/03/28 08:34:08;;;;;;;13.85;4.45;;;;;;;12.02;68.01;101568.75;5191399;28;20106;-75
2023/03/28 08:36:40;;;;;;;9.00;3.30;;;;;;;11.66;67.06;101571.41;5198243;28;20402;-73
2023/03/28 08:39:10;;;;;;;11.02;4.20;;;;;;;12.83;65.00;101560.38;5199836;28;20562;-72
2023/03/28 08:42:08;;;;;;;6.03;1.92;;;;;;;13.05;64.88;101555.34;5193222;28;20112;-75
2023/03/28 08:45:07;;;;;;;6.10;1.50;;;;;;;12.63;64.68;101563.56;5195239;28;20017;-73
2023/03/28 08:47:56;;;;;;;9.90;2.00;;;;;;;11.45;68.38;101575.34;5195501;28;20029;-73
2023/03/28 08:50:41;;;;;;;6.93;1.98;;;;;;;9.78;71.96;101582.19;5193042;28;20033;-74
2023/03/28 08:53:19;;;;;;;7.97;1.65;;;;;;;8.79;74.18;101589.72;5198385;28;20029;-74
2023/03/28 08:55:52;;;;;;;5.93;1.75;;;;;;;8.11;77.15;101595.63;5196999;28;20022;-73
2023/03/28 08:58:26;;;;;;;8.15;2.13;;;;;;;8.01;78.00;101596.59;5189147;28;20029;-72
2023/03/28 09:00:56;;;;;;;8.05;1.60;;;;;;;8.98;77.68;101586.88;5186359;28;20041;-74
2023/03/28 09:03:26;;;;;;;8.45;1.60;;;;;;;10.16;73.92;101576.34;5189724;28;20024;-73
2023/03/28 09:06:15;;;;;;;11.60;1.70;;;;;;;10.02;71.20;101581.78;5188629;28;20392;-73
2023/03/28 09:08:55;;;;;;;5.60;1.33;;;;;;;8.68;74.58;101586.34;5187945;28;20057;-73
2023/03/28 09:11:53;;;;;;;7.45;1.50;;;;;;;8.00;77.31;101593.97;5192066;28;20893;-72
2023/03/28 09:14:57;;;;;;;7.70;2.50;;;;;;;7.84;79.75;101592.41;5189410;28;20040;-72
2023/03/28 09:17:43;;;;;;;14.48;1.70;;;;;;;8.98;76.15;101583.38;5178289;28;20061;-72
2023/03/28 09:20:25;;;;;;;10.25;2.88;;;;;;;9.86;73.36;101569.00;5185991;28;20026;-72
2023/03/28 09:23:17;;;;;;;10.02;2.20;;;;;;;9.99;71.85;101578.34;5178256;28;20061;-74
2023/03/28 09:26:09;;;;;;;11.95;1.95;;;;;;;10.51;69.10;101571.31;5184491;28;20087;-72
2023/03/28 09:28:50;;;;;;;6.78;1.70;;;;;;;9.99;71.68;101575.75;5183291;28;20045;-73
2023/03/28 09:31:28;;;;;;;6.85;1.17;;;;;;;9.96;72.43;101578.41;5190383;28;20304;-74
2023/03/28 09:34:01;;;;;;;5.38;0.90;;;;;;;9.09;72.33;101579.75;5188990;28;20042;-72
2023/03/28 09:36:36;;;;;;;5.55;1.38;;;;;;;8.86;73.75;101581.81;5191184;28;20032;-71
2023/03/28 09:39:16;;;;;;;7.15;2.03;;;;;;;8.88;74.26;101593.06;5184429;28;20408;-75
2023/03/28 09:42:14;;;;;;;8.15;1.88;;;;;;;9.07;74.80;101586.72;5191760;28;20033;-72
2023/03/28 09:44:54;;;;;;;7.68;1.20;;;;;;;8.88;75.76;101580.03;5184685;28;20026;-72
2023/03/28 09:47:25;;;;;;;7.90;2.15;;;;;;;8.30;78.38;101594.63;5189598;28;20421;-72
2023/03/28 09:49:57;;;;;;;8.15;1.58;;;;;;;8.17;77.25;101598.19;5188623;28;20033;-74
2023/03/28 09:52:29;;;;;;;12.00;1.90;;;;;;;8.07;77.56;101596.53;5189037;28;20117;-73
2023/03/28 09:55:00;;;;;;;15.15;1.75;;;;;;;7.49;78.96;101590.06;5190071;28;20371;-75
2023/03/28 09:57:57;;;;;;;8.80;1.83;;;;;;;7.70;81.34;101605.50;5188771;28;20033;-72
2023/03/28 10:00:28;;;;;;;6.80;1.52;;;;;;;8.32;77.92;101592.84;5190034;28;20509;-73
2023/03/28 10:02:58;;;;;;;6.93;1.17;;;;;;;8.18;78.63;101593.88;5170413;28;20029;-72
2023/03/28 10:05:39;;;;;;;7.43;1.40;;;;;;;8.47;79.10;101592.69;5172364;28;20044;-72
2023/03/28 10:08:34;;;;;;;8.07;1.27;;;;;;;8.79;77.54;101595.81;5160950;28;20096;-75
2023/03/28 10:11:12;;;;;;;13.95;2.22;;;;;;;8.88;77.97;101600.88;5182589;28;20022;-74
2023/03/28 10:13:47;;;;;;;6.00;1.40;;;;;;;8.93;76.41;101595.63;5180653;28;20030;-72
2023/03/28 10:16:31;;;;;;;7.68;1.75;;;;;;;8.99;75.19;101591.19;5191718;28;20104;-72
2023/03/28 10:19:01;;;;;;;4.72;1.20;;;;;;;9.16;73.92;101590.06;5189777;28;20025;-73
2023/03/28 10:21:31;;;;;;;10.07;1.48;;;;;;;9.01;75.39;101597.25;5187587;28;20044;-73
2023/03/28 10:24:06;;;;;;;6.78;1.45;;;;;;;8.52;74.77;101609.13;5186532;28;20430;-71
2023/03/28 10:26:36;;;;;;;10.93;1.50;;;;;;;8.66;77.17;101606.38;5186799;28;20928;-73
2023/03/28 10:29:09;;;;;;;7.70;1.55;;;;;;;8.44;76.39;101617.91;5182058;28;21387;-73
2023/03/28 10:31:48;;;;;;;9.23;1.90;;;;;;;8.04;76.97;101604.38;5186970;28;20255;-73
2023/03/28 10:34:28;;;;;;;7.30;1.42;;;;;;;7.94;76.20;101615.75;5184512;28;20045;-73
2023/03/28 10:36:58;;;;;;;15.30;3.97;;;;;;;8.13;77.84;101606.91;5188406;28;20053;-74
2023/03/28 10:39:31;;;;;;;8.90;2.25;;;;;;;7.88;76.75;101613.19;5190232;28;20049;-74
2023/03/28 10:42:02;;;;;;;6.60;1.60;;;;;;;8.02;76.60;101608.72;5167449;28;20057;-73
2023/03/28 10:44:39;;;;;;;13.55;2.90;;;;;;;8.37;76.61;101611.03;5189711;28;20021;-72
2023/03/28 10:47:15;;;;;;;9.80;2.05;;;;;;;8.56;75.34;101603.00;5182609;28;20053;-72
2023/03/28 10:49:53;;;;;;;6.05;1.42;;;;;;;8.70;73.17;101602.88;5183908;28;20026;-73
2023/03/28 10:52:50;;;;;;;13.88;2.35;;;;;;;8.98;74.14;101599.91;5175617;28;20425;-73
2023/03/28 10:55:26;;;;;;;9.38;2.05;;;;;;;9.07;72.23;101599.75;5195395;28;20021;-73
2023/03/28 10:58:15;;;;;;;4.85;1.00;;;;;;;9.17;72.13;101593.56;5184797;28;20499;-72
2023/03/28 11:00:53;;;;;;;4.65;1.52;;;;;;;8.87;72.82;101603.53;5179653;28;20052;-73
2023/03/28 11:03:37;;;;;;;8.88;1.77;;;;;;;9.06;72.91;101600.66;5186275;28;20034;-73
2023/03/28 11:06:31;;;;;;;14.93;2.10;;;;;;;9.37;72.80;101597.63;5185427;28;20022;-73
2023/03/28 11:09:13;;;;;;;12.00;2.05;;;;;;;9.15;70.90;101604.00;5179755;28;20446;-72
2023/03/28 11:12:20;;;;;;;8.38;2.20;;;;;;;8.62;70.79;101602.06;5183453;28;20068;-70
2023/03/28 11:15:02;;;;;;;7.35;1.95;;;;;;;8.52;72.64;101601.31;5185384;28;20507;-72
2023/03/28 11:17:58;;;;;;;6.72;1.95;;;;;;;8.56;72.51;101597.78;5186794;28;20038;-73
2023/03/28 11:21:06;;;;;;;4.78;2.00;;;;;;;8.76;72.05;101595.81;5189100;28;20398;-73
2023/03/28 11:23:52;;;;;;;5.63;1.70;;;;;;;8.86;72.48;101592.22;5181879;28;20036;-72
2023/03/28 11:26:28;;;;;;;;;;;;;;;8.98;70.71;101588.59;5187475;28;20033;-73
2023/03/28 11:29:15;;;;;;;8.02;1.88;;;;;;;9.10;71.57;101586.69;5181088;28;19921;-72
2023/03/28 11:31:50;;;;;;;9.95;1.58;;;;;;;9.42;70.77;101584.47;5184523;28;20021;-72
2023/03/28 11:34:46;;;;;;;6.07;1.80;;;;;;;9.66;70.83;101586.75;5188486;28;20081;-72
2023/03/28 11:37:40;;;;;;;4.63;1.38;;;;;;;9.44;69.00;101583.59;5188055;28;20029;-73
2023/03/28 11:40:50;;;;;;;4.50;1.55;;;;;;;9.59;71.10;101578.13;5183596;28;20022;-74
2023/03/28 11:43:30;;;;;;;7.28;2.22;;;;;;;9.59;69.70;101577.25;5137817;28;20030;-73
2023/03/28 11:46:27;;;;;;;9.45;1.48;;;;;;;9.40;68.38;101581.91;5187010;28;20407;-73
2023/03/28 11:49:19;;;;;;;12.35;2.78;;;;;;;8.92;68.80;101589.53;5150580;28;20061;-73
2023/03/28 11:52:15;;;;;;;6.82;1.35;;;;;;;8.80;69.51;101581.88;5167385;28;20030;-72
2023/03/28 11:54:55;;;;;;;;;;;;;;;8.56;70.22;101586.53;5180291;28;20068;-72
2023/03/28 11:57:32;;;;;;;11.63;1.65;;;;;;;8.71;69.83;101584.59;5188244;28;19961;-74
2023/03/28 12:00:19;;;;;;;6.65;0.98;;;;;;;8.69;69.76;101594.16;5166015;28;20574;-74
2023/03/28 12:02:55;;;;;;;7.55;1.10;;;;;;;8.72;70.03;101593.28;5163805;28;20079;-73
2023/03/28 12:05:31;;;;;;;7.60;1.27;;;;;;;8.50;71.32;101586.56;5188352;28;20041;-72